Time;durP1;ratioP1;P1;durP2;ratioP2;P2;SDS_P1;SDS_P2;PMS_P1;PMS_P2;Temp;Humidity;BMP_temperature;BMP_pressure;BME280_temperature;BME280_humidity;BME280_pressure;Samples;Min_cycle;Max_cycle;Signal;HPM_P1;HPM_P2
2021/03/31 05:02:57;;;;;;;;;;;;;;;;;;5065903;28;20828;-59
2021/03/31 05:05:23;;;;;;;0.10;0.10;;;;;;;;;;5067716;28;19913;-60
2021/03/31 05:07:49;;;;;;;0.10;0.10;;;;;;;;;;5066151;28;20028;-60
2021/03/31 05:10:15;;;;;;;0.10;0.10;;;;;;;;;;5066597;28;20051;-60
2021/03/31 05:12:42;;;;;;;0.10;0.10;;;;;;;;;;5063854;28;20112;-60
2021/03/31 05:15:08;;;;;;;0.30;0.30;;;;;;;;;;5063895;28;20060;-59
2021/03/31 05:17:34;;;;;;;0.10;0.10;;;;;;;;;;5066613;28;20520;-60
2021/03/31 05:20:02;;;;;;;0.10;0.10;;;;;;;;;;5064768;28;20033;-60
2021/03/31 05:22:28;;;;;;;0.10;0.10;;;;;;;;;;5063050;28;20066;-60
2021/03/31 05:24:54;;;;;;;0.10;0.10;;;;;;;;;;5063616;28;20100;-61
2021/03/31 05:27:20;;;;;;;0.10;0.10;;;;;;;;;;5063538;28;20029;-60
2021/03/31 05:29:46;;;;;;;0.10;0.10;;;;;;;;;;5065476;28;20035;-61
2021/03/31 05:32:12;;;;;;;0.10;0.10;;;;;;;;;;5065205;28;20402;-60
2021/03/31 05:34:38;;;;;;;0.10;0.10;;;;;;;;;;5062459;28;20406;-60
2021/03/31 05:37:05;;;;;;;0.10;0.10;;;;;;;;;;5060534;28;20156;-61
2021/03/31 05:39:31;;;;;;;0.10;0.10;;;;;;;;;;5054250;28;20028;-61
2021/03/31 05:41:57;;;;;;;0.10;0.10;;;;;;;;;;5053272;28;20478;-61
2021/03/31 05:44:24;;;;;;;0.10;0.10;;;;;;;;;;5066698;28;20052;-61
2021/03/31 05:46:51;;;;;;;0.10;0.10;;;;;;;;;;5063293;28;20054;-61
2021/03/31 05:49:17;;;;;;;0.10;0.10;;;;;;;;;;5062984;28;20028;-62
2021/03/31 05:51:44;;;;;;;0.10;0.10;;;;;;;;;;5062759;28;20033;-61
2021/03/31 05:54:10;;;;;;;0.10;0.10;;;;;;;;;;5063211;28;20026;-60
2021/03/31 05:56:37;;;;;;;0.10;0.10;;;;;;;;;;5065183;28;20505;-61
2021/03/31 05:59:07;;;;;;;0.10;0.10;;;;;;;;;;5064298;28;20098;-60
2021/03/31 06:01:33;;;;;;;1.02;0.95;;;;;;;;;;5062655;28;20048;-61
2021/03/31 06:04:00;;;;;;;0.10;0.10;;;;;;;;;;5049450;28;20032;-59
2021/03/31 06:06:26;;;;;;;0.10;0.10;;;;;;;;;;5049752;28;20482;-61
2021/03/31 06:08:52;;;;;;;0.10;0.10;;;;;;;;;;5050858;28;20502;-61
2021/03/31 06:11:21;;;;;;;0.10;0.10;;;;;;;;;;5052182;28;20487;-60
2021/03/31 06:13:58;;;;;;;0.10;0.10;;;;;;;;;;5049450;28;20393;-61
2021/03/31 06:16:25;;;;;;;0.10;0.10;;;;;;;;;;5049668;28;20086;-60
2021/03/31 06:18:51;;;;;;;0.10;0.10;;;;;;;;;;5049678;28;20079;-61
2021/03/31 06:21:18;;;;;;;0.10;0.10;;;;;;;;;;5048787;28;20045;-60
2021/03/31 06:26:23;;;;;;;0.10;0.10;;;;;;;;;;5051547;28;20445;-61
2021/03/31 06:28:57;;;;;;;0.10;0.10;;;;;;;;;;5048738;28;20037;-61
2021/03/31 06:31:27;;;;;;;0.10;0.10;;;;;;;;;;5050267;28;20059;-60
2021/03/31 06:33:53;;;;;;;0.10;0.10;;;;;;;;;;5049350;28;20029;-61
2021/03/31 06:36:33;;;;;;;0.10;0.10;;;;;;;;;;5048325;28;20524;-61
2021/03/31 06:38:59;;;;;;;0.00;0.00;;;;;;;;;;5047788;28;20101;-61
2021/03/31 06:41:29;;;;;;;0.10;0.10;;;;;;;;;;5052058;28;20045;-61
2021/03/31 06:44:11;;;;;;;0.10;0.10;;;;;;;;;;5050332;28;20037;-61
2021/03/31 06:47:05;;;;;;;0.10;0.10;;;;;;;;;;5048273;28;20025;-61
2021/03/31 06:49:24;;;;;;;3.85;3.50;;;;;;;;;;5048743;28;20091;-61
2021/03/31 06:51:50;;;;;;;0.10;0.10;;;;;;;;;;5049783;28;20484;-61
2021/03/31 06:54:18;;;;;;;0.00;0.00;;;;;;;;;;5050153;28;20398;-61
2021/03/31 06:56:45;;;;;;;0.08;0.08;;;;;;;;;;5050243;28;20017;-61
2021/03/31 06:59:11;;;;;;;0.10;0.10;;;;;;;;;;5048540;28;20021;-61
2021/03/31 07:01:39;;;;;;;0.10;0.10;;;;;;;;;;5049419;28;20406;-61
2021/03/31 07:04:06;;;;;;;0.10;0.10;;;;;;;;;;5049461;28;20029;-61
2021/03/31 07:06:32;;;;;;;0.10;0.10;;;;;;;;;;5049375;28;20393;-61
2021/03/31 07:08:59;;;;;;;0.03;0.03;;;;;;;;;;5047476;28;20501;-61
2021/03/31 07:11:32;;;;;;;0.55;0.55;;;;;;;;;;5050610;28;20045;-61
2021/03/31 07:14:00;;;;;;;0.10;0.10;;;;;;;;;;5048680;28;20466;-61
2021/03/31 07:16:27;;;;;;;0.10;0.10;;;;;;;;;;5049473;28;20509;-61
2021/03/31 07:18:53;;;;;;;0.47;0.47;;;;;;;;;;5049170;28;20098;-61
2021/03/31 07:21:20;;;;;;;1.35;0.40;;;;;;;;;;5049199;28;20045;-61
2021/03/31 07:23:47;;;;;;;0.10;0.10;;;;;;;;;;5049372;28;20653;-61
2021/03/31 07:26:13;;;;;;;1.63;1.63;;;;;;;;;;5051030;28;20031;-61
2021/03/31 07:28:40;;;;;;;0.10;0.10;;;;;;;;;;5049448;28;20044;-61
2021/03/31 07:31:09;;;;;;;0.10;0.10;;;;;;;;;;5049690;28;20042;-61
2021/03/31 07:33:41;;;;;;;0.10;0.10;;;;;;;;;;5046099;28;20026;-61
2021/03/31 07:36:10;;;;;;;0.30;0.30;;;;;;;;;;5048759;28;20057;-61
2021/03/31 07:38:37;;;;;;;0.22;0.17;;;;;;;;;;5049150;28;20029;-60
2021/03/31 07:41:03;;;;;;;0.08;0.08;;;;;;;;;;5050096;28;20121;-61
2021/03/31 07:43:36;;;;;;;0.10;0.10;;;;;;;;;;5047835;28;20025;-61
2021/03/31 07:46:08;;;;;;;0.05;0.05;;;;;;;;;;5047974;28;20032;-61
2021/03/31 07:48:34;;;;;;;0.10;0.10;;;;;;;;;;5047340;28;20025;-61
2021/03/31 07:51:19;;;;;;;0.10;0.10;;;;;;;;;;5063121;28;20021;-61
2021/03/31 07:53:49;;;;;;;0.10;0.10;;;;;;;;;;5048106;28;20035;-60
2021/03/31 07:56:25;;;;;;;0.10;0.10;;;;;;;;;;5048386;28;20106;-61
2021/03/31 07:59:04;;;;;;;0.00;0.00;;;;;;;;;;5044610;28;20095;-60
2021/03/31 08:01:38;;;;;;;0.00;0.00;;;;;;;;;;5050748;28;20041;-61
2021/03/31 08:04:05;;;;;;;0.10;0.10;;;;;;;;;;5053906;28;20101;-60
2021/03/31 08:06:32;;;;;;;0.10;0.10;;;;;;;;;;5048245;28;20025;-61
2021/03/31 08:08:59;;;;;;;0.75;0.75;;;;;;;;;;5046945;28;20103;-60
2021/03/31 08:11:37;;;;;;;0.10;0.10;;;;;;;;;;5050721;28;20032;-61
2021/03/31 08:14:07;;;;;;;0.20;0.20;;;;;;;;;;5049593;28;20518;-61
2021/03/31 08:16:38;;;;;;;0.00;0.00;;;;;;;;;;5046579;28;20029;-61
2021/03/31 08:19:05;;;;;;;0.00;0.00;;;;;;;;;;5047180;28;20104;-61
2021/03/31 08:21:32;;;;;;;0.00;0.00;;;;;;;;;;5047725;28;20037;-61
2021/03/31 08:24:00;;;;;;;0.10;0.10;;;;;;;;;;5032151;28;20483;-61
2021/03/31 08:26:26;;;;;;;0.10;0.10;;;;;;;;;;5048637;28;20112;-62
2021/03/31 08:28:53;;;;;;;0.00;0.00;;;;;;;;;;5047197;28;20033;-61
2021/03/31 08:31:20;;;;;;;0.25;0.25;;;;;;;;;;5046876;28;20023;-61
2021/03/31 08:33:46;;;;;;;0.00;0.00;;;;;;;;;;5046383;28;20032;-61
2021/03/31 08:36:14;;;;;;;0.10;0.10;;;;;;;;;;5045988;28;20037;-62
2021/03/31 08:38:40;;;;;;;0.45;0.45;;;;;;;;;;5048911;28;20048;-61
2021/03/31 08:41:19;;;;;;;0.40;0.40;;;;;;;;;;5047734;28;20041;-61
2021/03/31 08:43:47;;;;;;;0.00;0.00;;;;;;;;;;5047144;28;20394;-61
2021/03/31 08:46:13;;;;;;;0.10;0.10;;;;;;;;;;5046728;28;20428;-61
2021/03/31 08:48:41;;;;;;;0.00;0.00;;;;;;;;;;5048410;28;20044;-61
2021/03/31 08:51:08;;;;;;;0.00;0.00;;;;;;;;;;5047054;28;20014;-61
2021/03/31 08:53:34;;;;;;;0.22;0.22;;;;;;;;;;5050770;28;20383;-62
2021/03/31 08:56:01;;;;;;;0.00;0.00;;;;;;;;;;5050149;28;20037;-61
2021/03/31 08:58:28;;;;;;;0.00;0.00;;;;;;;;;;5046119;28;20482;-61
2021/03/31 09:00:54;;;;;;;0.10;0.10;;;;;;;;;;5046430;28;20041;-61
2021/03/31 09:03:21;;;;;;;2.75;0.55;;;;;;;;;;5046388;28;20438;-61
2021/03/31 09:05:55;;;;;;;0.10;0.10;;;;;;;;;;5048479;28;20087;-61
2021/03/31 09:08:22;;;;;;;0.00;0.00;;;;;;;;;;5050251;28;20467;-60
2021/03/31 09:10:52;;;;;;;0.00;0.00;;;;;;;;;;5050591;28;20040;-61
2021/03/31 09:13:28;;;;;;;0.10;0.10;;;;;;;;;;5048064;28;20021;-61
2021/03/31 09:15:55;;;;;;;0.10;0.10;;;;;;;;;;5047086;28;20025;-61
2021/03/31 09:18:22;;;;;;;6.32;2.67;;;;;;;;;;5047606;28;20024;-61
2021/03/31 09:20:48;;;;;;;10.55;1.20;;;;;;;;;;5047112;28;20044;-61
2021/03/31 09:23:26;;;;;;;0.00;0.00;;;;;;;;;;5047598;28;20021;-61
2021/03/31 09:26:03;;;;;;;2.20;2.10;;;;;;;;;;5048883;28;20033;-61
2021/03/31 09:28:30;;;;;;;0.00;0.00;;;;;;;;;;5046329;28;20032;-60
2021/03/31 09:31:06;;;;;;;15.15;14.15;;;;;;;;;;5047600;28;20079;-61
2021/03/31 09:33:33;;;;;;;0.03;0.03;;;;;;;;;;5054843;28;20036;-60
2021/03/31 09:36:15;;;;;;;0.05;0.05;;;;;;;;;;5031507;28;20031;-61
2021/03/31 09:38:41;;;;;;;0.00;0.00;;;;;;;;;;5048901;28;20048;-61
2021/03/31 09:41:08;;;;;;;0.00;0.00;;;;;;;;;;5053486;28;20041;-61
2021/03/31 09:43:35;;;;;;;0.10;0.10;;;;;;;;;;5051703;28;20028;-61
2021/03/31 09:46:01;;;;;;;0.00;0.00;;;;;;;;;;5051349;28;20028;-61
2021/03/31 09:48:27;;;;;;;0.00;0.00;;;;;;;;;;5050590;28;20024;-61
2021/03/31 09:50:54;;;;;;;0.00;0.00;;;;;;;;;;5081939;28;20557;-61
2021/03/31 09:53:24;;;;;;;0.10;0.10;;;;;;;;;;5050202;28;20021;-62
2021/03/31 09:55:51;;;;;;;0.00;0.00;;;;;;;;;;5049020;28;20033;-61
2021/03/31 09:58:26;;;;;;;0.00;0.00;;;;;;;;;;5050083;28;20064;-62
2021/03/31 10:00:52;;;;;;;;;;;;;;;;;;5051110;28;20079;-61
2021/03/31 10:03:19;;;;;;;0.10;0.10;;;;;;;;;;5045159;28;19915;-62
2021/03/31 10:05:45;;;;;;;12.60;8.20;;;;;;;;;;5047591;28;20025;-62
2021/03/31 10:08:20;;;;;;;0.00;0.00;;;;;;;;;;5048281;28;20143;-61
2021/03/31 10:10:46;;;;;;;0.00;0.00;;;;;;;;;;5044883;28;20434;-61
2021/03/31 10:13:13;;;;;;;0.22;0.22;;;;;;;;;;5043997;28;20021;-61
2021/03/31 10:15:42;;;;;;;0.00;0.00;;;;;;;;;;5044446;28;20029;-61
2021/03/31 10:18:10;;;;;;;0.00;0.00;;;;;;;;;;5044912;28;20025;-60
2021/03/31 10:20:42;;;;;;;0.22;0.22;;;;;;;;;;5045988;28;20025;-61
2021/03/31 10:23:21;;;;;;;0.00;0.00;;;;;;;;;;5051163;28;20029;-61
2021/03/31 10:25:47;;;;;;;0.00;0.00;;;;;;;;;;5049035;28;20021;-61
2021/03/31 10:28:33;;;;;;;0.00;0.00;;;;;;;;;;5049144;28;20029;-61
2021/03/31 10:31:18;;;;;;;0.00;0.00;;;;;;;;;;5049072;28;20056;-61
2021/03/31 10:33:45;;;;;;;0.45;0.45;;;;;;;;;;5048728;28;20021;-61
2021/03/31 10:36:12;;;;;;;0.98;0.43;;;;;;;;;;5049124;28;20048;-60
2021/03/31 10:38:48;;;;;;;0.17;0.17;;;;;;;;;;5050751;28;20098;-60
2021/03/31 10:41:49;;;;;;;0.00;0.00;;;;;;;;;;5051056;28;20053;-61
2021/03/31 10:49:46;;;;;;;0.00;0.00;;;;;;;;;;5048618;28;20695;-61
2021/03/31 10:52:24;;;;;;;0.00;0.00;;;;;;;;;;5047839;28;20128;-61
2021/03/31 10:54:50;;;;;;;0.00;0.00;;;;;;;;;;5048822;28;20033;-61
2021/03/31 10:57:16;;;;;;;0.00;0.00;;;;;;;;;;5049270;28;20041;-61
2021/03/31 10:59:43;;;;;;;0.88;0.88;;;;;;;;;;5049241;28;20082;-61
2021/03/31 11:02:09;;;;;;;0.00;0.00;;;;;;;;;;5049880;28;20053;-61
2021/03/31 11:04:35;;;;;;;0.00;0.00;;;;;;;;;;5045818;28;20041;-61
2021/03/31 11:07:02;;;;;;;0.00;0.00;;;;;;;;;;5048803;28;20041;-61
2021/03/31 11:09:29;;;;;;;0.00;0.00;;;;;;;;;;5047749;28;20048;-61
2021/03/31 11:11:55;;;;;;;0.75;0.75;;;;;;;;;;5047688;28;20515;-61
2021/03/31 11:14:22;;;;;;;0.00;0.00;;;;;;;;;;5047615;28;20032;-61
2021/03/31 11:16:58;;;;;;;0.00;0.00;;;;;;;;;;5044586;28;20036;-62
2021/03/31 11:27:39;;;;;;;0.10;0.10;;;;;;;;;;5050951;28;20280;-61
2021/03/31 11:30:08;;;;;;;0.63;0.28;;;;;;;;;;5051257;28;20108;-61
2021/03/31 11:32:34;;;;;;;0.20;0.20;;;;;;;;;;5049631;28;20090;-62
2021/03/31 11:35:00;;;;;;;10.10;1.85;;;;;;;;;;5048981;28;20123;-62
2021/03/31 11:37:27;;;;;;;0.00;0.00;;;;;;;;;;5048100;28;20037;-62
2021/03/31 11:39:53;;;;;;;0.00;0.00;;;;;;;;;;5046628;28;20020;-62
2021/03/31 11:42:19;;;;;;;7.35;1.85;;;;;;;;;;5046114;28;20521;-62
2021/03/31 11:44:45;;;;;;;0.00;0.00;;;;;;;;;;5046248;28;20399;-61
2021/03/31 11:47:11;;;;;;;0.00;0.00;;;;;;;;;;5048304;28;20029;-62
2021/03/31 11:49:37;;;;;;;0.52;0.35;;;;;;;;;;5044680;28;20455;-62
2021/03/31 11:52:03;;;;;;;14.43;3.65;;;;;;;;;;5047792;28;20120;-62
2021/03/31 11:54:29;;;;;;;0.22;0.22;;;;;;;;;;5047977;28;20078;-60
2021/03/31 11:56:56;;;;;;;0.00;0.00;;;;;;;;;;5049704;28;20029;-61
2021/03/31 11:59:22;;;;;;;0.00;0.00;;;;;;;;;;5051289;28;20028;-61
2021/03/31 12:01:48;;;;;;;0.55;0.55;;;;;;;;;;5046355;28;20044;-61
2021/03/31 12:04:15;;;;;;;0.00;0.00;;;;;;;;;;5049969;28;20021;-61
2021/03/31 12:06:43;;;;;;;0.00;0.00;;;;;;;;;;5047741;28;20105;-61
2021/03/31 12:09:11;;;;;;;0.63;0.45;;;;;;;;;;5046340;28;20036;-62
2021/03/31 12:11:37;;;;;;;0.32;0.32;;;;;;;;;;5046886;28;20094;-61
2021/03/31 12:14:03;;;;;;;7.35;0.52;;;;;;;;;;5049768;28;20025;-61
2021/03/31 12:16:30;;;;;;;0.52;0.52;;;;;;;;;;5046731;28;20406;-61
2021/03/31 12:18:56;;;;;;;3.70;1.50;;;;;;;;;;5049798;28;20048;-62
2021/03/31 12:21:22;;;;;;;0.00;0.00;;;;;;;;;;5047937;28;20048;-62
2021/03/31 12:23:48;;;;;;;0.00;0.00;;;;;;;;;;5051568;28;20120;-61
2021/03/31 12:26:16;;;;;;;1.17;0.32;;;;;;;;;;5051795;28;20029;-61
2021/03/31 12:28:48;;;;;;;3.50;3.17;;;;;;;;;;5047561;28;20478;-61
2021/03/31 12:31:14;;;;;;;1.40;1.08;;;;;;;;;;5047804;28;20028;-61
2021/03/31 12:33:40;;;;;;;0.00;0.00;;;;;;;;;;5047522;28;20021;-61
2021/03/31 12:36:06;;;;;;;0.38;0.08;;;;;;;;;;5047938;28;20040;-62
2021/03/31 12:38:32;;;;;;;0.10;0.10;;;;;;;;;;5047672;28;20178;-61
2021/03/31 12:40:58;;;;;;;0.45;0.32;;;;;;;;;;5050425;28;20040;-62
2021/03/31 12:43:24;;;;;;;6.55;1.20;;;;;;;;;;5048080;28;20028;-62
2021/03/31 12:45:51;;;;;;;0.10;0.10;;;;;;;;;;5050669;28;20482;-60
2021/03/31 12:48:17;;;;;;;0.38;0.20;;;;;;;;;;5049158;28;20075;-61
2021/03/31 12:50:44;;;;;;;1.17;0.80;;;;;;;;;;5047713;28;20028;-62
2021/03/31 12:55:41;;;;;;;2.58;2.47;;;;;;;;;;5047258;28;20037;-62
2021/03/31 12:58:09;;;;;;;13.82;2.65;;;;;;;;;;5045425;28;20020;-62
2021/03/31 13:00:35;;;;;;;3.28;0.85;;;;;;;;;;5049320;28;20032;-62
2021/03/31 13:03:01;;;;;;;3.40;1.83;;;;;;;;;;5047271;28;20055;-62
2021/03/31 13:05:28;;;;;;;7.25;2.97;;;;;;;;;;5047155;28;20599;-62
2021/03/31 13:07:54;;;;;;;3.67;1.65;;;;;;;;;;5079241;28;20482;-62
2021/03/31 13:10:20;;;;;;;1.23;0.90;;;;;;;;;;5045402;28;20028;-61
2021/03/31 13:12:56;;;;;;;4.38;1.20;;;;;;;;;;5079831;28;20454;-61
2021/03/31 13:15:33;;;;;;;7.65;0.98;;;;;;;;;;5049301;28;20036;-61
2021/03/31 13:29:25;;;;;;;2.20;1.38;;;;;;;;;;5051614;28;20029;-61
2021/03/31 13:31:38;;;;;;;18.88;3.15;;;;;;;;;;5044996;28;20041;-61
2021/03/31 13:34:10;;;;;;;9.93;2.80;;;;;;;;;;5049145;28;20036;-62
2021/03/31 13:36:45;;;;;;;5.32;4.28;;;;;;;;;;5050477;28;20567;-61
2021/03/31 13:39:18;;;;;;;10.88;2.20;;;;;;;;;;5051365;28;20034;-60
2021/03/31 13:41:45;;;;;;;2.63;1.05;;;;;;;;;;5050222;28;20037;-61
2021/03/31 13:44:12;;;;;;;3.55;0.45;;;;;;;;;;5050957;28;20021;-61
2021/03/31 13:46:45;;;;;;;3.33;1.73;;;;;;;;;;5050553;28;20512;-61
2021/03/31 13:49:14;;;;;;;5.88;2.65;;;;;;;;;;5050435;28;20025;-60
2021/03/31 13:51:48;;;;;;;2.58;2.30;;;;;;;;;;5050907;28;20043;-60
2021/03/31 13:54:14;;;;;;;2.30;1.73;;;;;;;;;;5051732;28;20032;-61
2021/03/31 13:56:44;;;;;;;9.75;2.10;;;;;;;;;;5051738;28;20515;-61
2021/03/31 13:59:10;;;;;;;6.18;5.57;;;;;;;;;;5053320;28;20091;-61
2021/03/31 14:01:36;;;;;;;1.58;1.40;;;;;;;;;;5051048;28;20083;-61
2021/03/31 14:04:03;;;;;;;0.80;0.75;;;;;;;;;;5051302;28;20056;-61
2021/03/31 14:06:29;;;;;;;4.03;0.77;;;;;;;;;;5051935;28;20406;-62
2021/03/31 14:08:55;;;;;;;1.02;0.57;;;;;;;;;;5050170;28;20034;-61
2021/03/31 14:11:22;;;;;;;0.00;0.00;;;;;;;;;;5052129;28;20489;-61
2021/03/31 14:13:49;;;;;;;5.50;1.75;;;;;;;;;;5050906;28;20455;-61
2021/03/31 14:16:15;;;;;;;3.08;1.80;;;;;;;;;;5050656;28;20024;-60
2021/03/31 14:18:43;;;;;;;5.72;0.95;;;;;;;;;;5050550;28;20052;-61
2021/03/31 14:21:10;;;;;;;9.10;1.70;;;;;;;;;;5051555;28;20464;-61
2021/03/31 14:23:36;;;;;;;2.20;0.65;;;;;;;;;;5051234;28;20021;-61
2021/03/31 14:26:02;;;;;;;7.28;1.73;;;;;;;;;;5052210;28;20048;-61
2021/03/31 14:28:28;;;;;;;5.18;1.45;;;;;;;;;;5048953;28;20078;-61
2021/03/31 14:30:54;;;;;;;0.73;0.65;;;;;;;;;;5050471;28;20025;-61
2021/03/31 14:33:20;;;;;;;2.75;2.45;;;;;;;;;;5050234;28;20502;-61
2021/03/31 14:35:47;;;;;;;7.68;1.00;;;;;;;;;;5050493;28;20017;-61
2021/03/31 14:38:13;;;;;;;0.20;0.20;;;;;;;;;;5052323;28;20021;-61
2021/03/31 14:40:39;;;;;;;1.65;0.38;;;;;;;;;;5050587;28;20445;-61
2021/03/31 14:43:05;;;;;;;0.55;0.55;;;;;;;;;;5032920;28;20506;-62
2021/03/31 14:45:31;;;;;;;0.13;0.13;;;;;;;;;;5050188;28;20187;-61
2021/03/31 14:48:00;;;;;;;7.57;1.13;;;;;;;;;;5050271;28;20029;-61
2021/03/31 14:50:30;;;;;;;1.13;1.05;;;;;;;;;;5051673;28;20028;-61
2021/03/31 14:56:40;;;;;;;2.23;1.53;;;;;;;;;;5049548;28;20024;-61
2021/03/31 15:01:28;;;;;;;12.70;1.70;;;;;;;;;;5047698;28;20592;-62
2021/03/31 15:03:54;;;;;;;2.67;1.35;;;;;;;;;;5036760;28;20041;-61
2021/03/31 15:06:20;;;;;;;0.00;0.00;;;;;;;;;;5036675;28;20033;-62
2021/03/31 15:08:46;;;;;;;6.88;1.35;;;;;;;;;;5036429;28;20029;-62
2021/03/31 15:11:12;;;;;;;1.27;1.13;;;;;;;;;;5036176;28;20020;-62
2021/03/31 15:13:38;;;;;;;11.50;1.65;;;;;;;;;;5037213;28;20044;-62
2021/03/31 15:16:04;;;;;;;3.28;2.22;;;;;;;;;;5035132;28;20044;-62
2021/03/31 15:18:30;;;;;;;0.60;0.30;;;;;;;;;;5038389;28;20100;-62
2021/03/31 15:23:45;;;;;;;0.70;0.70;;;;;;;;;;5033520;28;20041;-61
2021/03/31 15:26:11;;;;;;;0.38;0.38;;;;;;;;;;5035740;28;20025;-62
2021/03/31 15:28:37;;;;;;;8.57;2.03;;;;;;;;;;5035542;28;20087;-62
2021/03/31 15:31:04;;;;;;;3.78;1.48;;;;;;;;;;5034329;28;20017;-62
2021/03/31 15:33:31;;;;;;;1.35;1.05;;;;;;;;;;5032349;28;20021;-62
2021/03/31 15:35:57;;;;;;;0.20;0.20;;;;;;;;;;5031413;28;20033;-61
2021/03/31 15:38:24;;;;;;;1.55;1.35;;;;;;;;;;5037023;28;20081;-61
2021/03/31 15:40:54;;;;;;;5.22;2.55;;;;;;;;;;5036198;28;20028;-61
2021/03/31 15:43:21;;;;;;;0.10;0.10;;;;;;;;;;5037443;28;20041;-61
2021/03/31 15:45:47;;;;;;;4.88;1.48;;;;;;;;;;5037326;28;20053;-62
2021/03/31 15:48:14;;;;;;;0.43;0.30;;;;;;;;;;5030682;28;20410;-62
2021/03/31 15:50:40;;;;;;;2.45;1.40;;;;;;;;;;5034435;28;20100;-61
2021/03/31 15:53:07;;;;;;;2.55;1.85;;;;;;;;;;5034717;28;20059;-61
2021/03/31 15:55:34;;;;;;;0.93;0.90;;;;;;;;;;5031078;28;20495;-62
2021/03/31 15:58:00;;;;;;;1.42;1.35;;;;;;;;;;5032338;28;20141;-61
2021/03/31 16:00:27;;;;;;;0.40;0.40;;;;;;;;;;5026295;28;20423;-61
2021/03/31 16:05:29;;;;;;;;;;;;;;;;;;5030448;28;20017;-62
2021/03/31 16:07:56;;;;;;;4.65;0.95;;;;;;;;;;5039815;28;20365;-61
2021/03/31 16:10:22;;;;;;;1.55;1.20;;;;;;;;;;5042105;28;20502;-61
2021/03/31 16:12:48;;;;;;;0.80;0.75;;;;;;;;;;5042973;28;20473;-61
2021/03/31 16:15:14;;;;;;;3.78;2.55;;;;;;;;;;5042943;28;20076;-62
2021/03/31 16:17:41;;;;;;;0.50;0.32;;;;;;;;;;5043818;28;20028;-62
2021/03/31 16:20:07;;;;;;;0.47;0.40;;;;;;;;;;5043991;28;20059;-62
2021/03/31 16:22:33;;;;;;;1.15;0.20;;;;;;;;;;5041469;28;20553;-61
2021/03/31 16:25:00;;;;;;;32.63;6.18;;;;;;;;;;5034816;28;20039;-61
2021/03/31 16:27:26;;;;;;;3.05;1.63;;;;;;;;;;5035081;28;20036;-61
2021/03/31 16:30:05;;;;;;;5.40;1.85;;;;;;;;;;5033497;28;20336;-60
2021/03/31 16:32:31;;;;;;;0.32;0.25;;;;;;;;;;5035168;28;20013;-60
2021/03/31 16:34:57;;;;;;;3.13;2.33;;;;;;;;;;5043106;28;20032;-61
2021/03/31 16:37:29;;;;;;;2.35;1.35;;;;;;;;;;5041483;28;20048;-60
2021/03/31 16:39:56;;;;;;;10.05;1.75;;;;;;;;;;5041730;28;20037;-61
2021/03/31 16:42:22;;;;;;;2.85;0.85;;;;;;;;;;5046172;28;20112;-61
2021/03/31 16:44:48;;;;;;;2.17;2.08;;;;;;;;;;5045276;28;20021;-61
2021/03/31 16:47:14;;;;;;;0.10;0.10;;;;;;;;;;5051839;28;20040;-61
2021/03/31 16:49:41;;;;;;;2.20;1.38;;;;;;;;;;5046396;28;20025;-62
2021/03/31 16:52:08;;;;;;;2.03;1.05;;;;;;;;;;5048700;28;20402;-61
2021/03/31 16:54:34;;;;;;;0.55;0.45;;;;;;;;;;5049005;28;20763;-61
2021/03/31 16:57:00;;;;;;;1.13;1.02;;;;;;;;;;5046009;28;20053;-62
2021/03/31 16:59:28;;;;;;;0.57;0.57;;;;;;;;;;5051582;28;20025;-61
2021/03/31 17:01:54;;;;;;;0.13;0.13;;;;;;;;;;5048600;28;20076;-61
2021/03/31 17:04:20;;;;;;;3.33;2.30;;;;;;;;;;5048689;28;20464;-61
2021/03/31 17:06:47;;;;;;;0.30;0.20;;;;;;;;;;5049713;28;20119;-62
2021/03/31 17:09:13;;;;;;;0.80;0.43;;;;;;;;;;5047340;28;20057;-60
2021/03/31 17:11:39;;;;;;;0.40;0.40;;;;;;;;;;5048903;28;20449;-61
2021/03/31 17:14:05;;;;;;;1.75;1.00;;;;;;;;;;5051247;28;20491;-61
2021/03/31 17:16:32;;;;;;;0.10;0.10;;;;;;;;;;5048822;28;20022;-61
2021/03/31 17:18:58;;;;;;;6.70;1.10;;;;;;;;;;5048624;28;20025;-61
2021/03/31 17:21:24;;;;;;;0.10;0.10;;;;;;;;;;5048606;28;20053;-61
2021/03/31 17:23:50;;;;;;;0.30;0.30;;;;;;;;;;5047004;28;20025;-61
2021/03/31 17:26:17;;;;;;;0.90;0.82;;;;;;;;;;5048869;28;20025;-61
2021/03/31 17:28:43;;;;;;;1.90;1.77;;;;;;;;;;5047527;28;20025;-61
2021/03/31 17:31:10;;;;;;;0.90;0.90;;;;;;;;;;5048018;28;20083;-60
2021/03/31 17:33:36;;;;;;;0.40;0.40;;;;;;;;;;5045576;28;20025;-61
2021/03/31 17:36:03;;;;;;;0.90;0.45;;;;;;;;;;5046411;28;20032;-61
2021/03/31 17:38:29;;;;;;;24.38;2.28;;;;;;;;;;5061094;28;20029;-61
2021/03/31 17:40:55;;;;;;;0.00;0.00;;;;;;;;;;5046227;28;20029;-61
2021/03/31 17:43:21;;;;;;;0.52;0.52;;;;;;;;;;5046839;28;20114;-61
2021/03/31 17:45:47;;;;;;;1.55;1.38;;;;;;;;;;5045452;28;20479;-60
2021/03/31 17:48:14;;;;;;;10.43;1.77;;;;;;;;;;5045852;28;20032;-61
2021/03/31 17:50:41;;;;;;;0.30;0.30;;;;;;;;;;5047389;28;20025;-61
2021/03/31 17:53:11;;;;;;;3.00;0.85;;;;;;;;;;5048688;28;20040;-61
2021/03/31 17:55:39;;;;;;;4.30;1.20;;;;;;;;;;5046533;28;20033;-61
2021/03/31 17:58:05;;;;;;;0.03;0.03;;;;;;;;;;5047467;28;20083;-63
2021/03/31 18:00:32;;;;;;;7.78;1.40;;;;;;;;;;5047451;28;20013;-63
2021/03/31 18:03:03;;;;;;;4.38;3.33;;;;;;;;;;5048523;28;20072;-62
2021/03/31 18:05:29;;;;;;;0.17;0.17;;;;;;;;;;5046957;28;20029;-63
2021/03/31 18:07:56;;;;;;;11.40;4.80;;;;;;;;;;5046557;28;20017;-63
2021/03/31 18:10:22;;;;;;;0.00;0.00;;;;;;;;;;5049906;28;20078;-63
2021/03/31 18:12:55;;;;;;;6.90;3.47;;;;;;;;;;5047568;28;20024;-63
2021/03/31 18:15:39;;;;;;;0.63;0.63;;;;;;;;;;5048241;28;20036;-62
2021/03/31 18:18:06;;;;;;;0.35;0.35;;;;;;;;;;5043154;28;20466;-62
2021/03/31 18:20:32;;;;;;;1.30;1.08;;;;;;;;;;5051208;28;20029;-63
2021/03/31 18:22:58;;;;;;;0.00;0.00;;;;;;;;;;5049849;28;20041;-62
2021/03/31 18:25:27;;;;;;;0.95;0.95;;;;;;;;;;5029810;28;20079;-63
2021/03/31 18:27:54;;;;;;;1.02;1.02;;;;;;;;;;5047620;28;20029;-62
2021/03/31 18:30:21;;;;;;;0.45;0.45;;;;;;;;;;5048131;28;20106;-62
2021/03/31 18:32:47;;;;;;;3.40;2.40;;;;;;;;;;5047283;28;20037;-63
2021/03/31 18:35:15;;;;;;;0.77;0.77;;;;;;;;;;5049333;28;20109;-63
2021/03/31 18:37:41;;;;;;;0.00;0.00;;;;;;;;;;5046370;28;20021;-62
2021/03/31 18:43:04;;;;;;;0.20;0.20;;;;;;;;;;5044076;28;20048;-62
2021/03/31 18:45:31;;;;;;;0.00;0.00;;;;;;;;;;5041221;28;20041;-62
2021/03/31 18:47:58;;;;;;;0.00;0.00;;;;;;;;;;5049621;28;20564;-63
2021/03/31 18:50:24;;;;;;;0.00;0.00;;;;;;;;;;5051824;28;20033;-62
2021/03/31 18:52:52;;;;;;;0.00;0.00;;;;;;;;;;5050590;28;20064;-62
2021/03/31 18:55:18;;;;;;;0.10;0.10;;;;;;;;;;5048847;28;20103;-62
2021/03/31 18:57:45;;;;;;;0.00;0.00;;;;;;;;;;5047216;28;20425;-63
2021/03/31 19:00:12;;;;;;;2.42;2.22;;;;;;;;;;5047851;28;20736;-63
2021/03/31 19:02:40;;;;;;;0.10;0.10;;;;;;;;;;5049788;28;20048;-62
2021/03/31 19:05:06;;;;;;;1.27;1.27;;;;;;;;;;5046267;28;20560;-62
2021/03/31 19:07:32;;;;;;;0.82;0.65;;;;;;;;;;5046835;28;20052;-61
2021/03/31 19:12:47;;;;;;;0.10;0.10;;;;;;;;;;5045862;28;20041;-62
2021/03/31 19:15:17;;;;;;;0.00;0.00;;;;;;;;;;5048300;28;20052;-61
2021/03/31 19:17:43;;;;;;;6.32;0.52;;;;;;;;;;5047221;28;20483;-61
2021/03/31 19:20:10;;;;;;;3.20;2.63;;;;;;;;;;5049155;28;20029;-61
2021/03/31 19:22:38;;;;;;;0.20;0.20;;;;;;;;;;5047206;28;20037;-61
2021/03/31 19:25:07;;;;;;;0.00;0.00;;;;;;;;;;5048325;28;20070;-61
2021/03/31 19:27:33;;;;;;;0.00;0.00;;;;;;;;;;5047802;28;20475;-62
2021/03/31 19:30:00;;;;;;;0.00;0.00;;;;;;;;;;5047400;28;20084;-61
2021/03/31 19:32:31;;;;;;;0.08;0.08;;;;;;;;;;5049009;28;20036;-61
2021/03/31 19:35:01;;;;;;;0.35;0.35;;;;;;;;;;5047083;28;20509;-61
2021/03/31 19:37:31;;;;;;;0.10;0.10;;;;;;;;;;5047192;28;20025;-61
2021/03/31 19:39:58;;;;;;;0.05;0.05;;;;;;;;;;5046748;28;20577;-61
2021/03/31 19:42:24;;;;;;;0.00;0.00;;;;;;;;;;5045857;28;20055;-61
2021/03/31 19:44:56;;;;;;;0.10;0.10;;;;;;;;;;5047301;28;20072;-61
2021/03/31 19:47:25;;;;;;;0.00;0.00;;;;;;;;;;5047615;28;20032;-61
2021/03/31 19:49:52;;;;;;;0.20;0.20;;;;;;;;;;5046110;28;20031;-61
2021/03/31 19:52:19;;;;;;;0.03;0.03;;;;;;;;;;5047366;28;20032;-61
2021/03/31 19:54:47;;;;;;;0.00;0.00;;;;;;;;;;5043892;28;20017;-61
2021/03/31 19:57:18;;;;;;;0.13;0.13;;;;;;;;;;5048128;28;20474;-60
2021/03/31 19:59:45;;;;;;;0.10;0.10;;;;;;;;;;5046422;28;20143;-60
2021/03/31 20:02:11;;;;;;;0.00;0.00;;;;;;;;;;5047609;28;20045;-60
2021/03/31 20:04:38;;;;;;;0.00;0.00;;;;;;;;;;5046381;28;20041;-61
2021/03/31 20:07:05;;;;;;;0.00;0.00;;;;;;;;;;5046046;28;20064;-61
2021/03/31 20:09:31;;;;;;;0.03;0.03;;;;;;;;;;5046227;28;20025;-61
2021/03/31 20:11:57;;;;;;;0.00;0.00;;;;;;;;;;5045850;28;20076;-61
2021/03/31 20:14:24;;;;;;;0.00;0.00;;;;;;;;;;5048733;28;20025;-60
2021/03/31 20:16:51;;;;;;;0.00;0.00;;;;;;;;;;5045889;28;20029;-60
2021/03/31 20:19:18;;;;;;;0.08;0.08;;;;;;;;;;5046288;28;20021;-61
2021/03/31 20:21:44;;;;;;;0.00;0.00;;;;;;;;;;5045105;28;20612;-62
2021/03/31 20:24:14;;;;;;;0.00;0.00;;;;;;;;;;5044838;28;20032;-60
2021/03/31 20:26:41;;;;;;;0.00;0.00;;;;;;;;;;5047965;28;20041;-60
2021/03/31 20:29:08;;;;;;;0.00;0.00;;;;;;;;;;5047686;28;20032;-61
